Time;durP1;ratioP1;P1;durP2;ratioP2;P2;SDS_P1;SDS_P2;PMS_P1;PMS_P2;Temp;Humidity;BMP_temperature;BMP_pressure;BME280_temperature;BME280_humidity;BME280_pressure;Samples;Min_cycle;Max_cycle;Signal;HPM_P1;HPM_P2
2023/09/02 00:00:29;;;;;;;1.73;1.60;;;14.40;99.90;;;;;;5041147;28;20518;-96
2023/09/02 00:02:54;;;;;;;1.92;1.73;;;14.40;99.90;;;;;;5040720;28;20194;-96
2023/09/02 00:05:20;;;;;;;2.88;1.77;;;14.40;99.90;;;;;;5041666;28;20273;-96
2023/09/02 00:07:54;;;;;;;6.25;2.05;;;14.40;99.90;;;;;;5040770;28;20189;-96
2023/09/02 00:10:20;;;;;;;2.50;2.10;;;14.30;99.90;;;;;;5040298;28;20178;-96
2023/09/02 00:12:46;;;;;;;3.45;2.28;;;14.30;99.90;;;;;;5041921;28;20239;-96
2023/09/02 00:15:11;;;;;;;2.03;1.80;;;14.30;99.90;;;;;;5041820;28;20197;-96
2023/09/02 00:17:37;;;;;;;3.15;1.92;;;14.30;99.90;;;;;;5024021;28;20194;-96
2023/09/02 00:20:07;;;;;;;4.68;2.00;;;14.40;99.90;;;;;;5040162;28;20212;-96
2023/09/02 00:22:33;;;;;;;2.42;1.90;;;14.40;99.90;;;;;;5042120;28;20174;-96
2023/09/02 00:24:59;;;;;;;2.70;1.83;;;14.40;99.90;;;;;;5041455;28;20601;-96
2023/09/02 00:27:25;;;;;;;2.50;2.08;;;14.40;99.90;;;;;;5039557;28;20177;-96
2023/09/02 00:29:51;;;;;;;3.85;2.30;;;14.30;99.90;;;;;;5042240;28;20174;-96
2023/09/02 00:32:19;;;;;;;2.88;2.10;;;14.30;99.90;;;;;;5042132;28;20174;-96
2023/09/02 00:34:46;;;;;;;2.00;1.65;;;14.30;99.90;;;;;;5030270;28;20205;-96
2023/09/02 00:37:12;;;;;;;2.78;2.50;;;14.30;99.90;;;;;;5044928;28;20265;-96
2023/09/02 00:39:38;;;;;;;4.03;2.30;;;14.30;99.90;;;;;;5042735;28;20201;-96
2023/09/02 00:42:06;;;;;;;2.10;1.88;;;14.30;99.90;;;;;;5041176;28;20204;-96
2023/09/02 00:44:34;;;;;;;1.80;1.50;;;14.30;99.90;;;;;;5039661;28;20209;-96
2023/09/02 00:47:03;;;;;;;1.52;1.42;;;14.30;99.90;;;;;;5038902;28;20234;-96
2023/09/02 00:49:38;;;;;;;3.55;1.52;;;14.30;99.90;;;;;;5039490;28;20639;-96
2023/09/02 00:52:04;;;;;;;1.33;1.23;;;14.20;99.90;;;;;;5039571;28;20264;-95
2023/09/02 00:54:32;;;;;;;1.50;1.40;;;14.20;99.90;;;;;;5039046;28;20608;-96
2023/09/02 00:56:58;;;;;;;1.35;1.25;;;14.30;99.90;;;;;;5039827;28;20217;-95
2023/09/02 00:59:34;;;;;;;1.58;1.35;;;14.30;99.90;;;;;;5040379;28;20608;-95
2023/09/02 01:02:02;;;;;;;1.70;1.60;;;14.30;99.90;;;;;;5040095;28;20177;-96
2023/09/02 01:04:28;;;;;;;2.70;1.67;;;14.30;99.90;;;;;;5039915;28;20176;-96
2023/09/02 01:06:57;;;;;;;1.50;1.35;;;14.40;99.90;;;;;;5040268;28;20305;-96
2023/09/02 01:09:23;;;;;;;2.13;1.40;;;14.40;99.90;;;;;;5042808;28;20568;-96
2023/09/02 01:11:52;;;;;;;2.08;1.35;;;14.40;99.90;;;;;;5044627;28;20193;-96
2023/09/02 01:14:20;;;;;;;2.33;1.45;;;14.40;99.90;;;;;;5031907;28;20577;-96
2023/09/02 01:16:45;;;;;;;1.60;1.50;;;14.40;99.90;;;;;;5042762;28;20654;-96
2023/09/02 01:19:18;;;;;;;1.38;1.27;;;14.40;99.90;;;;;;5046910;28;20198;-96
2023/09/02 01:21:56;;;;;;;2.30;1.50;;;14.40;99.90;;;;;;5046452;28;20545;-96
2023/09/02 01:24:59;;;;;;;2.22;2.03;;;14.40;99.90;;;;;;5047844;28;20174;-96
2023/09/02 01:27:43;;;;;;;2.28;1.70;;;14.50;99.90;;;;;;5044255;28;20193;-96
2023/09/02 01:30:21;;;;;;;3.45;2.17;;;14.50;99.90;;;;;;5045644;28;20189;-96
2023/09/02 01:32:52;;;;;;;3.10;2.30;;;14.50;99.90;;;;;;5047329;28;20184;-96
2023/09/02 01:35:27;;;;;;;2.53;1.90;;;14.60;99.90;;;;;;5046285;28;20249;-96
2023/09/02 01:37:56;;;;;;;2.30;2.10;;;14.60;99.90;;;;;;5046356;28;20186;-96
2023/09/02 01:40:25;;;;;;;2.15;1.88;;;14.60;99.90;;;;;;5034205;28;20192;-96
2023/09/02 01:42:59;;;;;;;2.17;1.98;;;14.60;99.90;;;;;;5046945;28;20170;-96
2023/09/02 01:45:30;;;;;;;5.75;2.05;;;14.60;99.90;;;;;;5049620;28;20205;-96
2023/09/02 01:47:58;;;;;;;1.70;1.60;;;14.70;99.90;;;;;;5033779;28;20237;-96
2023/09/02 01:50:33;;;;;;;3.55;1.77;;;14.70;99.90;;;;;;5069647;28;20178;-96
2023/09/02 01:53:03;;;;;;;3.13;1.88;;;14.70;99.90;;;;;;5068608;28;20599;-96
2023/09/02 01:55:30;;;;;;;2.28;1.90;;;14.70;99.90;;;;;;5050019;28;20178;-96
2023/09/02 01:57:57;;;;;;;4.05;1.73;;;14.70;99.90;;;;;;5035111;28;20199;-96
2023/09/02 02:00:44;;;;;;;5.15;2.15;;;14.70;99.90;;;;;;5054433;28;20248;-96
2023/09/02 02:03:34;;;;;;;2.63;2.30;;;14.70;99.90;;;;;;5031358;28;20190;-96
2023/09/02 02:06:05;;;;;;;1.98;1.80;;;14.70;99.90;;;;;;5050301;28;20237;-96
2023/09/02 02:08:58;;;;;;;2.53;2.13;;;14.60;99.90;;;;;;5052241;28;20170;-96
2023/09/02 02:11:30;;;;;;;4.65;2.20;;;14.70;99.90;;;;;;5052385;28;20205;-96
2023/09/02 02:14:02;;;;;;;4.78;2.17;;;14.70;99.90;;;;;;5067934;28;20186;-96
2023/09/02 02:16:31;;;;;;;5.10;2.47;;;14.70;99.90;;;;;;5035370;28;20182;-96
2023/09/02 02:19:05;;;;;;;5.90;2.53;;;14.70;99.90;;;;;;5052154;28;20189;-96
2023/09/02 02:21:32;;;;;;;2.67;2.13;;;14.70;99.90;;;;;;5054128;28;20240;-96
2023/09/02 02:23:58;;;;;;;4.55;2.10;;;14.70;99.90;;;;;;5052207;28;20186;-96
2023/09/02 02:26:24;;;;;;;4.20;2.95;;;14.70;99.90;;;;;;5034437;28;20225;-96
2023/09/02 02:29:01;;;;;;;4.05;3.25;;;14.70;99.90;;;;;;5048069;28;20201;-96
2023/09/02 02:31:27;;;;;;;2.72;2.53;;;14.70;99.90;;;;;;5046048;28;20177;-96
2023/09/02 02:33:53;;;;;;;5.07;2.67;;;14.70;99.90;;;;;;5046193;28;20192;-96
2023/09/02 02:36:20;;;;;;;5.03;3.38;;;14.70;99.90;;;;;;5046369;28;20189;-96
2023/09/02 02:38:55;;;;;;;4.32;3.80;;;14.70;99.90;;;;;;5034082;28;20169;-96
2023/09/02 02:41:21;;;;;;;4.63;3.20;;;14.80;99.90;;;;;;5049480;28;20180;-96
2023/09/02 02:43:47;;;;;;;3.60;3.20;;;14.80;99.90;;;;;;5040042;28;20170;-96
2023/09/02 02:46:13;;;;;;;8.60;4.05;;;14.80;99.90;;;;;;5050898;28;20210;-96
2023/09/02 02:48:43;;;;;;;5.32;4.15;;;14.80;99.90;;;;;;5055566;28;20236;-96
2023/09/02 02:51:10;;;;;;;4.30;3.85;;;14.90;99.90;;;;;;5041370;28;20188;-96
2023/09/02 02:53:40;;;;;;;8.35;4.28;;;14.90;99.90;;;;;;5057051;28;20260;-96
2023/09/02 02:56:30;;;;;;;4.20;3.70;;;14.90;99.90;;;;;;5049275;28;20213;-96
2023/09/02 02:59:01;;;;;;;5.47;4.10;;;14.90;99.90;;;;;;5055252;28;20178;-96
2023/09/02 03:01:31;;;;;;;5.30;4.75;;;14.90;99.90;;;;;;5070294;28;20182;-96
2023/09/02 03:04:21;;;;;;;10.82;4.90;;;14.90;99.90;;;;;;5054100;28;20204;-96
2023/09/02 03:06:49;;;;;;;8.80;5.18;;;14.90;99.90;;;;;;5068504;28;20237;-96
2023/09/02 03:09:15;;;;;;;7.50;5.03;;;15.00;99.90;;;;;;5048876;28;20204;-96
2023/09/02 03:11:41;;;;;;;5.72;4.18;;;14.90;99.90;;;;;;5047051;28;20201;-96
2023/09/02 03:14:10;;;;;;;10.32;5.53;;;15.00;99.90;;;;;;5046661;28;20169;-96
2023/09/02 03:16:37;;;;;;;6.78;6.07;;;15.00;99.90;;;;;;5050919;28;20525;-96
2023/09/02 03:19:06;;;;;;;11.13;7.18;;;15.00;99.90;;;;;;5047483;28;20202;-96
2023/09/02 03:21:32;;;;;;;7.50;5.90;;;15.00;99.90;;;;;;5046898;28;20189;-96
2023/09/02 03:23:58;;;;;;;5.90;5.30;;;15.00;99.90;;;;;;5043064;28;20189;-96
2023/09/02 03:26:26;;;;;;;9.07;6.47;;;15.00;99.90;;;;;;5042062;28;20209;-96
2023/09/02 03:28:58;;;;;;;7.28;6.22;;;15.00;99.90;;;;;;5028258;28;20215;-96
2023/09/02 03:31:24;;;;;;;7.70;6.57;;;15.10;99.90;;;;;;5042159;28;20329;-96
2023/09/02 03:33:50;;;;;;;8.20;5.57;;;15.10;99.90;;;;;;5028841;28;20245;-96
2023/09/02 03:36:22;;;;;;;8.55;6.47;;;15.00;99.90;;;;;;5044301;28;20276;-96
2023/09/02 03:38:48;;;;;;;8.70;7.30;;;15.00;99.90;;;;;;5042638;28;20166;-96
2023/09/02 03:41:17;;;;;;;7.95;7.15;;;15.00;99.90;;;;;;5045249;28;20617;-96
2023/09/02 03:43:45;;;;;;;8.35;7.00;;;15.00;99.90;;;;;;5047640;28;20618;-96
2023/09/02 03:46:12;;;;;;;10.40;6.30;;;15.00;99.90;;;;;;5042741;28;20347;-96
2023/09/02 03:48:38;;;;;;;11.10;6.72;;;15.10;99.90;;;;;;5042140;28;20651;-96
2023/09/02 03:51:16;;;;;;;7.60;5.53;;;15.10;99.90;;;;;;5041062;28;20174;-96
2023/09/02 03:53:42;;;;;;;4.93;3.83;;;15.10;99.90;;;;;;5041187;28;20170;-96
2023/09/02 03:56:09;;;;;;;4.40;3.90;;;15.00;99.90;;;;;;5041857;28;20509;-96
2023/09/02 03:58:35;;;;;;;6.53;4.15;;;15.00;99.90;;;;;;5043315;28;20189;-96
2023/09/02 04:01:03;;;;;;;5.57;3.90;;;15.00;99.90;;;;;;5043218;28;20178;-96
2023/09/02 04:03:31;;;;;;;4.45;4.05;;;15.00;99.90;;;;;;5040941;28;20653;-96
2023/09/02 04:05:57;;;;;;;5.70;3.75;;;15.00;99.90;;;;;;5041603;28;20736;-96
2023/09/02 04:08:25;;;;;;;5.07;4.05;;;15.00;99.90;;;;;;5041770;28;20210;-96
2023/09/02 04:10:55;;;;;;;6.90;4.07;;;15.10;99.90;;;;;;5041497;28;20178;-96
2023/09/02 04:13:26;;;;;;;6.03;5.10;;;15.10;99.90;;;;;;5041797;28;20224;-95
2023/09/02 04:16:02;;;;;;;6.13;4.10;;;15.00;99.90;;;;;;5040121;28;20596;-96
2023/09/02 04:18:30;;;;;;;5.05;3.78;;;15.00;99.90;;;;;;5040482;28;20184;-95
2023/09/02 04:20:59;;;;;;;7.35;4.85;;;15.00;99.90;;;;;;5040790;28;20174;-96
2023/09/02 04:23:25;;;;;;;8.15;5.40;;;15.00;99.90;;;;;;5041567;28;20584;-96
2023/09/02 04:25:53;;;;;;;8.20;5.90;;;15.10;99.90;;;;;;5039660;28;20296;-96
2023/09/02 04:28:19;;;;;;;7.00;4.80;;;15.10;99.90;;;;;;5026342;28;20187;-96
2023/09/02 04:30:49;;;;;;;6.22;4.57;;;15.10;99.90;;;;;;5036549;28;20187;-96
2023/09/02 04:33:16;;;;;;;4.90;4.40;;;15.00;99.90;;;;;;5036021;28;20262;-96
2023/09/02 04:35:43;;;;;;;8.90;5.10;;;15.00;99.90;;;;;;5036207;28;20171;-96
2023/09/02 04:38:10;;;;;;;11.75;6.05;;;15.00;99.90;;;;;;5036974;28;20186;-96
2023/09/02 04:40:39;;;;;;;7.95;5.20;;;15.00;99.90;;;;;;5020255;28;20182;-96
2023/09/02 04:43:07;;;;;;;8.15;5.97;;;15.00;99.90;;;;;;5037388;28;20617;-96
2023/09/02 04:45:34;;;;;;;6.00;5.40;;;15.00;99.90;;;;;;5036235;28;20548;-96
2023/09/02 04:48:01;;;;;;;6.93;6.05;;;15.10;99.90;;;;;;5038916;28;20213;-96
2023/09/02 04:50:28;;;;;;;7.70;6.93;;;15.10;99.90;;;;;;5040155;28;20181;-96
2023/09/02 04:52:53;;;;;;;7.60;6.80;;;15.10;99.90;;;;;;5039675;28;20245;-96
2023/09/02 04:55:19;;;;;;;10.07;6.57;;;15.10;99.90;;;;;;5026493;28;20201;-96
2023/09/02 04:57:46;;;;;;;8.52;7.00;;;15.20;99.90;;;;;;5038297;28;20184;-96
2023/09/02 05:00:14;;;;;;;7.93;5.45;;;15.20;99.90;;;;;;5031140;28;20628;-95
2023/09/02 05:02:43;;;;;;;6.68;4.63;;;15.20;99.90;;;;;;5020103;28;20240;-96
2023/09/02 05:05:10;;;;;;;6.40;4.20;;;15.20;99.90;;;;;;5019919;28;20607;-96
2023/09/02 05:07:36;;;;;;;7.13;4.10;;;15.20;99.90;;;;;;5019458;28;20239;-96
2023/09/02 05:10:02;;;;;;;7.45;3.97;;;15.20;99.90;;;;;;5019868;28;20213;-96
2023/09/02 05:12:28;;;;;;;4.93;3.92;;;15.20;99.90;;;;;;5020047;28;20253;-96
2023/09/02 05:14:53;;;;;;;6.07;3.78;;;15.20;99.90;;;;;;5035655;28;20278;-96
2023/09/02 05:17:19;;;;;;;6.35;3.90;;;15.20;99.90;;;;;;5038972;28;20193;-96
2023/09/02 05:19:45;;;;;;;6.38;4.20;;;15.30;99.90;;;;;;5039684;28;20177;-96
2023/09/02 05:22:10;;;;;;;7.25;4.75;;;15.20;99.90;;;;;;5037837;28;20631;-96
2023/09/02 05:24:36;;;;;;;6.43;4.53;;;15.20;99.90;;;;;;5036463;28;20229;-96
2023/09/02 05:27:02;;;;;;;8.18;5.10;;;15.20;99.90;;;;;;5038508;28;20260;-96
2023/09/02 05:29:27;;;;;;;5.90;4.43;;;15.30;99.90;;;;;;5039162;28;20170;-96
2023/09/02 05:31:59;;;;;;;7.43;4.82;;;15.30;99.90;;;;;;5039374;28;20569;-96
2023/09/02 05:34:25;;;;;;;6.95;4.65;;;15.20;99.90;;;;;;5040404;28;20237;-96
2023/09/02 05:36:51;;;;;;;4.88;4.38;;;15.20;99.90;;;;;;5039715;28;20205;-96
2023/09/02 05:39:16;;;;;;;6.93;4.63;;;15.20;99.90;;;;;;5040293;28;20185;-96
2023/09/02 05:41:45;;;;;;;6.18;4.80;;;15.20;99.90;;;;;;5039920;28;20178;-96
2023/09/02 05:44:11;;;;;;;6.63;4.75;;;15.20;99.90;;;;;;5040948;28;20197;-95
2023/09/02 05:46:37;;;;;;;6.18;5.10;;;15.20;99.90;;;;;;5040665;28;20278;-96
2023/09/02 05:49:03;;;;;;;8.75;5.50;;;15.20;99.90;;;;;;5039951;28;20258;-95
2023/09/02 05:51:29;;;;;;;6.80;6.03;;;15.20;99.90;;;;;;5041579;28;20178;-96
2023/09/02 05:53:55;;;;;;;8.55;5.88;;;15.30;99.90;;;;;;5042954;28;20185;-96
2023/09/02 05:56:23;;;;;;;5.30;4.80;;;15.30;99.90;;;;;;5040678;28;20189;-96
2023/09/02 05:58:49;;;;;;;7.30;5.60;;;15.30;99.90;;;;;;5024883;28;20187;-96
2023/09/02 06:01:24;;;;;;;6.95;5.70;;;15.30;99.90;;;;;;5021446;28;20187;-95
2023/09/02 06:03:50;;;;;;;5.85;4.85;;;15.40;99.90;;;;;;5021781;28;20200;-96
2023/09/02 06:06:16;;;;;;;6.90;4.70;;;15.40;99.90;;;;;;5023434;28;20657;-96
2023/09/02 06:08:42;;;;;;;7.85;5.88;;;15.30;99.90;;;;;;5029883;28;20190;-96
2023/09/02 06:11:16;;;;;;;7.88;6.13;;;15.30;99.90;;;;;;5043018;28;20186;-96
2023/09/02 06:13:41;;;;;;;11.35;6.90;;;15.30;99.90;;;;;;5042486;28;20196;-95
2023/09/02 06:16:07;;;;;;;7.97;6.70;;;15.30;99.90;;;;;;5043345;28;20604;-95
2023/09/02 06:18:35;;;;;;;11.48;7.15;;;15.30;99.90;;;;;;5041629;28;20267;-95
2023/09/02 06:21:14;;;;;;;7.65;6.53;;;15.30;99.90;;;;;;5061892;28;20173;-96
2023/09/02 06:23:44;;;;;;;9.95;7.47;;;15.30;99.90;;;;;;5058845;28;20184;-95
2023/09/02 06:26:11;;;;;;;9.02;6.88;;;15.30;99.90;;;;;;5029650;28;20300;-95
2023/09/02 06:28:38;;;;;;;10.13;7.68;;;15.40;99.90;;;;;;5025156;28;20627;-96
2023/09/02 06:31:10;;;;;;;10.18;7.72;;;15.30;99.90;;;;;;5038933;28;20178;-96
2023/09/02 06:33:36;;;;;;;10.30;7.93;;;15.40;99.90;;;;;;5037873;28;20170;-95
2023/09/02 06:36:10;;;;;;;9.23;7.95;;;15.40;99.90;;;;;;5037634;28;20173;-95
2023/09/02 06:38:36;;;;;;;11.45;8.52;;;15.40;99.90;;;;;;5037295;28;20189;-95
2023/09/02 06:41:12;;;;;;;8.93;7.82;;;15.40;99.90;;;;;;5037268;28;20177;-95
2023/09/02 06:43:39;;;;;;;12.63;9.30;;;15.40;99.90;;;;;;5040591;28;20178;-96
2023/09/02 06:46:14;;;;;;;9.48;8.43;;;15.40;99.90;;;;;;5037661;28;20209;-95
2023/09/02 06:48:40;;;;;;;11.18;7.93;;;15.40;99.90;;;;;;5037016;28;20232;-96
2023/09/02 06:51:07;;;;;;;8.48;7.13;;;15.40;99.90;;;;;;5037257;28;20186;-95
2023/09/02 06:53:32;;;;;;;10.85;7.50;;;15.40;99.90;;;;;;5037219;28;20178;-95
2023/09/02 06:55:58;;;;;;;9.68;7.85;;;15.40;99.90;;;;;;5038541;28;20182;-95
2023/09/02 06:58:24;;;;;;;11.13;8.27;;;15.40;99.90;;;;;;5023364;28;20532;-94
2023/09/02 07:00:52;;;;;;;11.77;8.98;;;15.40;99.90;;;;;;5017354;28;20189;-94
2023/09/02 07:03:19;;;;;;;11.68;8.88;;;15.40;99.90;;;;;;5017203;28;20179;-95
2023/09/02 07:05:44;;;;;;;9.65;7.40;;;15.50;99.90;;;;;;5034956;28;20198;-95
2023/09/02 07:08:10;;;;;;;9.30;7.30;;;15.50;99.90;;;;;;5047923;28;20174;-96
2023/09/02 07:10:36;;;;;;;8.55;6.88;;;15.50;99.90;;;;;;5037155;28;20684;-95
2023/09/02 07:13:03;;;;;;;9.43;7.65;;;15.50;99.90;;;;;;5036040;28;20177;-95
2023/09/02 07:15:29;;;;;;;8.38;7.32;;;15.60;99.90;;;;;;5043953;28;20185;-95
2023/09/02 07:17:55;;;;;;;11.90;8.98;;;15.60;99.90;;;;;;5053731;28;20243;-95
2023/09/02 07:20:20;;;;;;;14.50;9.27;;;15.70;99.90;;;;;;5043927;28;20186;-94
2023/09/02 07:22:47;;;;;;;10.45;9.23;;;15.70;99.90;;;;;;5036642;28;20559;-95
2023/09/02 07:25:13;;;;;;;11.02;8.68;;;15.80;99.90;;;;;;5036963;28;20255;-95
2023/09/02 07:27:38;;;;;;;12.23;8.27;;;15.80;99.90;;;;;;5037759;28;20186;-95
2023/09/02 07:30:05;;;;;;;12.98;9.05;;;15.90;99.90;;;;;;5052593;28;20178;-94
2023/09/02 07:32:41;;;;;;;13.27;9.25;;;15.90;99.90;;;;;;5033338;28;20182;-95
2023/09/02 07:35:07;;;;;;;13.77;9.52;;;16.00;99.90;;;;;;5040643;28;20173;-95
2023/09/02 07:37:33;;;;;;;17.67;12.57;;;16.10;99.90;;;;;;5040406;28;20169;-95
2023/09/02 07:39:58;;;;;;;12.18;9.55;;;16.10;99.90;;;;;;5040667;28;20185;-94
2023/09/02 07:42:25;;;;;;;10.65;8.35;;;16.10;99.90;;;;;;5053526;28;20690;-94
2023/09/02 07:44:57;;;;;;;9.65;8.32;;;16.20;99.90;;;;;;5028612;28;20182;-95
2023/09/02 07:47:22;;;;;;;10.27;8.80;;;16.20;99.90;;;;;;5036701;28;20229;-94
2023/09/02 07:49:48;;;;;;;11.70;9.27;;;16.30;99.90;;;;;;5039873;28;20189;-93
2023/09/02 07:52:24;;;;;;;8.30;7.50;;;16.40;99.90;;;;;;5039958;28;20178;-94
2023/09/02 07:54:50;;;;;;;11.73;10.05;;;16.40;99.90;;;;;;5040090;28;20170;-94
2023/09/02 07:57:18;;;;;;;10.80;9.80;;;16.50;99.90;;;;;;5025043;28;20178;-94
2023/09/02 07:59:44;;;;;;;12.13;10.15;;;16.60;99.90;;;;;;5045777;28;20175;-93
2023/09/02 08:02:16;;;;;;;10.82;9.73;;;16.60;99.90;;;;;;5033492;28;20260;-93
2023/09/02 08:04:41;;;;;;;11.50;9.80;;;16.70;99.90;;;;;;5020115;28;20505;-95
2023/09/02 08:07:07;;;;;;;12.38;9.27;;;16.70;99.90;;;;;;5019774;28;20218;-94
2023/09/02 08:09:33;;;;;;;11.70;10.02;;;16.80;99.90;;;;;;5019810;28;20638;-95
2023/09/02 08:12:00;;;;;;;11.90;9.73;;;16.80;99.90;;;;;;5020420;28;20636;-94
2023/09/02 08:14:26;;;;;;;15.68;10.48;;;16.90;99.90;;;;;;5020173;28;20225;-95
2023/09/02 08:16:52;;;;;;;10.80;9.68;;;17.00;99.90;;;;;;5025696;28;20174;-95
2023/09/02 08:19:17;;;;;;;14.05;9.70;;;17.00;99.90;;;;;;5039987;28;20189;-94
2023/09/02 08:21:43;;;;;;;13.13;10.32;;;17.10;99.90;;;;;;5039611;28;20177;-95
2023/09/02 08:24:14;;;;;;;10.07;9.05;;;17.20;99.90;;;;;;5039717;28;20279;-95
2023/09/02 08:26:41;;;;;;;11.68;9.75;;;17.20;99.90;;;;;;5057208;28;20201;-95
2023/09/02 08:29:06;;;;;;;12.05;10.45;;;17.20;99.90;;;;;;5039417;28;20178;-95
2023/09/02 08:31:32;;;;;;;12.32;9.30;;;17.30;99.90;;;;;;5057109;28;20181;-95
2023/09/02 08:33:58;;;;;;;11.18;9.23;;;17.30;99.90;;;;;;5039185;28;20272;-94
2023/09/02 08:36:23;;;;;;;11.48;8.95;;;17.30;99.90;;;;;;5038946;28;20181;-95
2023/09/02 08:38:53;;;;;;;12.43;9.52;;;17.30;99.90;;;;;;5035998;28;20179;-94
2023/09/02 08:41:30;;;;;;;10.15;7.90;;;17.40;99.90;;;;;;5039337;28;20515;-94
2023/09/02 08:44:02;;;;;;;8.15;7.35;;;17.50;99.90;;;;;;5038973;28;20605;-95
2023/09/02 08:46:27;;;;;;;8.40;7.47;;;17.50;99.90;;;;;;5037309;28;20209;-95
2023/09/02 08:48:56;;;;;;;8.98;7.28;;;17.70;99.90;;;;;;5032076;28;20226;-96
2023/09/02 08:51:25;;;;;;;8.15;7.35;;;17.80;99.90;;;;;;5060300;28;20181;-96
2023/09/02 08:53:55;;;;;;;7.43;6.70;;;17.80;99.90;;;;;;5043431;28;20182;-96
2023/09/02 08:56:25;;;;;;;8.63;6.95;;;17.90;99.90;;;;;;5040209;28;20216;-95
2023/09/02 08:58:53;;;;;;;9.35;7.47;;;17.80;99.90;;;;;;5040594;28;20231;-96
2023/09/02 09:01:21;;;;;;;9.75;7.68;;;17.90;99.90;;;;;;5044189;28;20186;-95
2023/09/02 09:03:53;;;;;;;9.98;7.05;;;17.90;99.90;;;;;;5039967;28;20174;-96
2023/09/02 09:06:25;;;;;;;8.63;7.70;;;18.00;99.90;;;;;;5047631;28;20287;-96
2023/09/02 09:08:56;;;;;;;10.70;8.60;;;18.10;99.90;;;;;;5029881;28;20196;-96
2023/09/02 09:11:23;;;;;;;8.65;7.80;;;18.20;99.90;;;;;;5056962;28;20170;-96
2023/09/02 09:14:01;;;;;;;9.52;8.35;;;18.20;99.90;;;;;;5042345;28;20209;-96
2023/09/02 09:16:33;;;;;;;8.90;7.70;;;18.20;99.90;;;;;;5040734;28;20181;-96
2023/09/02 09:19:01;;;;;;;8.13;7.35;;;18.20;99.90;;;;;;5040250;28;20182;-96
2023/09/02 09:21:26;;;;;;;8.60;7.80;;;18.10;99.90;;;;;;5038940;28;20169;-96
2023/09/02 09:24:03;;;;;;;9.32;7.88;;;18.10;99.90;;;;;;5038751;28;20200;-96
2023/09/02 09:26:31;;;;;;;8.50;7.70;;;18.00;99.90;;;;;;5038877;28;20235;-96
2023/09/02 09:28:58;;;;;;;8.13;6.60;;;18.00;99.90;;;;;;5034966;28;20210;-96
2023/09/02 09:31:26;;;;;;;8.27;7.47;;;17.90;99.90;;;;;;5035602;28;20216;-96
2023/09/02 09:33:54;;;;;;;8.80;7.90;;;17.90;99.90;;;;;;5036142;28;20179;-96
2023/09/02 09:36:23;;;;;;;8.45;7.60;;;17.90;99.90;;;;;;5035030;28;20527;-96
2023/09/02 09:38:53;;;;;;;10.20;8.07;;;17.90;99.90;;;;;;5035585;28;20182;-96
2023/09/02 09:41:19;;;;;;;9.32;8.00;;;17.90;99.90;;;;;;5035435;28;20684;-95
2023/09/02 09:44:06;;;;;;;7.97;7.20;;;17.80;99.90;;;;;;5034745;28;20182;-96
2023/09/02 09:46:46;;;;;;;8.73;7.82;;;17.70;99.90;;;;;;5035390;28;20248;-96
2023/09/02 09:49:31;;;;;;;8.35;7.55;;;17.70;99.90;;;;;;5018844;28;20221;-96
2023/09/02 09:52:00;;;;;;;10.52;8.60;;;17.70;99.90;;;;;;5028598;28;20174;-96
2023/09/02 09:54:52;;;;;;;10.73;9.52;;;17.70;99.90;;;;;;5028263;28;20170;-96
2023/09/02 09:57:30;;;;;;;10.80;9.77;;;17.60;99.90;;;;;;5028112;28;20175;-96
2023/09/02 09:59:57;;;;;;;11.15;9.80;;;17.60;99.90;;;;;;5027154;28;20178;-96
2023/09/02 10:02:23;;;;;;;8.77;7.93;;;17.70;99.90;;;;;;5028643;28;20174;-96
2023/09/02 10:04:54;;;;;;;11.55;9.63;;;17.70;99.90;;;;;;5029115;28;20170;-96
2023/09/02 10:07:24;;;;;;;9.93;8.93;;;17.80;99.90;;;;;;5028811;28;20187;-96
2023/09/02 10:09:53;;;;;;;12.68;10.43;;;17.90;99.90;;;;;;5021579;28;20198;-96
2023/09/02 10:12:19;;;;;;;11.18;9.50;;;17.90;99.90;;;;;;5020206;28;20178;-96
2023/09/02 10:14:47;;;;;;;10.32;9.32;;;18.10;99.90;;;;;;5021570;28;20178;-96
2023/09/02 10:17:14;;;;;;;9.93;8.93;;;18.30;99.90;;;;;;5018609;28;20483;-96
2023/09/02 10:22:19;;;;;;;9.00;8.20;;;18.70;99.90;;;;;;5075665;28;20221;-96
2023/09/02 10:24:51;;;;;;;9.98;9.10;;;18.60;99.90;;;;;;5060723;28;20177;-96
2023/09/02 10:27:25;;;;;;;12.35;9.95;;;18.70;99.90;;;;;;5067625;28;20184;-96
2023/09/02 10:30:01;;;;;;;10.32;9.35;;;18.80;99.90;;;;;;5067414;28;20169;-96
2023/09/02 10:32:37;;;;;;;9.82;8.90;;;19.00;99.90;;;;;;5090423;23;20244;-96
2023/09/02 10:35:23;;;;;;;8.05;7.25;;;19.00;99.90;;;;;;5026549;28;20189;-96
2023/09/02 10:40:25;;;;;;;9.23;7.50;;;19.00;99.90;;;;;;4986256;28;20473;-96
2023/09/02 10:42:54;;;;;;;9.10;8.20;;;19.10;99.90;;;;;;4968836;28;20176;-96
2023/09/02 10:45:20;;;;;;;8.60;7.80;;;19.00;99.90;;;;;;4968798;28;20219;-96
2023/09/02 10:47:48;;;;;;;8.07;7.38;;;19.00;99.90;;;;;;4966158;28;20204;-96
2023/09/02 10:50:18;;;;;;;7.95;7.25;;;19.10;99.90;;;;;;4966240;28;20195;-96
2023/09/02 10:52:50;;;;;;;8.88;7.88;;;19.20;99.90;;;;;;4966158;28;20241;-96
2023/09/02 10:55:20;;;;;;;7.88;7.18;;;19.40;99.90;;;;;;4966732;28;20180;-96
2023/09/02 10:58:02;;;;;;;7.70;6.63;;;19.50;99.90;;;;;;4965987;28;20200;-96
2023/09/02 11:00:33;;;;;;;7.22;6.53;;;19.70;99.90;;;;;;4966775;28;20181;-96
2023/09/02 11:03:09;;;;;;;6.93;6.00;;;19.80;99.90;;;;;;4972891;28;20176;-96
2023/09/02 11:06:05;;;;;;;5.88;5.28;;;20.00;99.90;;;;;;4976992;28;20215;-96
2023/09/02 11:08:52;;;;;;;5.35;4.82;;;20.30;99.90;;;;;;4980043;28;20172;-96
2023/09/02 11:11:19;;;;;;;5.20;4.70;;;20.50;99.90;;;;;;4976656;28;20172;-96
2023/09/02 11:14:35;;;;;;;5.55;4.30;;;20.60;99.90;;;;;;4977248;28;20176;-96
2023/09/02 11:17:30;;;;;;;5.68;4.50;;;20.70;99.90;;;;;;4974825;28;20267;-96
2023/09/02 11:20:27;;;;;;;5.03;4.53;;;20.60;99.90;;;;;;4975701;28;20176;-96
2023/09/02 11:23:20;;;;;;;4.03;3.72;;;20.50;99.90;;;;;;4980383;28;20189;-96
2023/09/02 11:26:19;;;;;;;4.80;4.22;;;20.30;99.90;;;;;;4975731;28;20215;-96
2023/09/02 11:29:36;;;;;;;5.32;4.50;;;20.20;99.90;;;;;;4974342;28;20671;-96
2023/09/02 11:32:05;;;;;;;4.38;3.97;;;20.10;99.90;;;;;;4978796;28;20203;-96
2023/09/02 11:34:52;;;;;;;7.10;4.57;;;20.00;99.90;;;;;;4979762;28;20212;-96
2023/09/02 11:37:34;;;;;;;6.32;5.20;;;20.00;99.90;;;;;;4978257;28;20255;-96
2023/09/02 11:40:27;;;;;;;6.25;4.13;;;20.10;99.90;;;;;;4993969;28;20224;-96
2023/09/02 11:43:02;;;;;;;4.78;4.38;;;20.20;99.90;;;;;;4994425;28;20176;-96
2023/09/02 11:45:33;;;;;;;4.40;4.00;;;20.40;99.90;;;;;;4992923;28;20298;-96
2023/09/02 11:48:42;;;;;;;3.80;3.45;;;20.70;99.90;;;;;;4999133;28;20204;-96
2023/09/02 11:51:23;;;;;;;4.40;4.00;;;20.80;99.90;;;;;;4992510;28;20191;-96
2023/09/02 11:53:55;;;;;;;4.10;3.75;;;20.70;99.90;;;;;;4993799;28;20239;-96
2023/09/02 11:56:36;;;;;;;4.43;4.03;;;20.60;99.90;;;;;;4994910;28;20199;-96
2023/09/02 11:59:08;;;;;;;3.30;3.00;;;20.50;99.90;;;;;;4993614;28;20243;-96
2023/09/02 12:01:39;;;;;;;4.10;3.67;;;20.40;99.90;;;;;;4980562;28;20199;-96
2023/09/02 12:04:09;;;;;;;3.20;2.78;;;20.30;99.90;;;;;;4992160;28;20176;-96
2023/09/02 12:06:43;;;;;;;3.30;3.03;;;20.30;99.90;;;;;;4993392;28;20239;-96
2023/09/02 12:09:30;;;;;;;5.00;3.38;;;20.40;99.90;;;;;;4996274;28;20172;-97
2023/09/02 12:11:58;;;;;;;4.15;3.13;;;20.60;99.90;;;;;;4992808;28;20172;-96
2023/09/02 12:14:28;;;;;;;3.47;3.17;;;20.80;99.90;;;;;;4994199;28;20192;-96
2023/09/02 12:17:03;;;;;;;3.40;2.88;;;21.00;99.90;;;;;;4993191;28;20247;-96
2023/09/02 12:19:32;;;;;;;4.18;3.00;;;21.30;99.90;;;;;;4975098;28;20203;-96
2023/09/02 12:21:58;;;;;;;2.55;2.28;;;21.50;99.90;;;;;;4995092;28;20176;-96
2023/09/02 12:24:43;;;;;;;2.50;2.30;;;21.80;99.90;;;;;;4996614;28;20236;-96
2023/09/02 12:27:17;;;;;;;2.80;2.03;;;21.90;99.90;;;;;;4990202;28;20578;-96
2023/09/02 12:29:58;;;;;;;3.13;2.60;;;22.10;99.90;;;;;;4993561;28;20175;-96
2023/09/02 12:32:37;;;;;;;3.60;2.70;;;22.20;99.90;;;;;;4995642;28;20192;-96
2023/09/02 12:35:29;;;;;;;3.60;2.30;;;22.30;99.90;;;;;;4988631;28;20183;-96
2023/09/02 12:38:23;;;;;;;3.20;2.90;;;22.40;99.90;;;;;;4985416;28;20200;-96
2023/09/02 12:41:05;;;;;;;2.75;2.47;;;22.40;99.90;;;;;;4986086;28;20251;-96
2023/09/02 12:43:38;;;;;;;3.17;2.60;;;22.10;99.90;;;;;;4985275;28;20207;-96
2023/09/02 12:46:21;;;;;;;2.58;2.20;;;22.00;99.90;;;;;;4983477;28;20278;-96
2023/09/02 12:48:47;;;;;;;2.70;2.22;;;21.70;99.90;;;;;;4980891;28;20254;-96
2023/09/02 12:51:30;;;;;;;3.25;2.50;;;21.50;99.90;;;;;;4983916;28;20234;-96
2023/09/02 12:53:59;;;;;;;3.53;2.25;;;21.50;99.90;;;;;;4983896;28;20183;-96
2023/09/02 12:56:28;;;;;;;3.83;2.30;;;21.30;99.90;;;;;;4984361;28;20291;-96
2023/09/02 12:58:56;;;;;;;3.25;2.47;;;21.30;99.90;;;;;;4986927;28;20654;-96
2023/09/02 13:01:24;;;;;;;3.50;2.00;;;21.10;99.90;;;;;;4989697;28;20270;-96
2023/09/02 13:03:52;;;;;;;3.85;2.10;;;21.40;99.90;;;;;;4984856;28;20180;-96
2023/09/02 13:06:29;;;;;;;3.58;2.25;;;21.60;99.90;;;;;;4989528;28;20306;-96
2023/09/02 13:08:59;;;;;;;2.65;2.10;;;21.40;99.90;;;;;;4991735;28;20180;-96